createdAt,value
2023-03-05T00:00:55.073Z,12.79
2023-03-05T00:03:21.828Z,12.76
2023-03-05T00:05:48.603Z,12.74
2023-03-05T00:08:15.358Z,12.73
2023-03-05T00:10:42.002Z,12.71
2023-03-05T00:13:08.665Z,12.68
2023-03-05T00:15:41.376Z,12.67
2023-03-05T00:18:08.333Z,12.64
2023-03-05T00:20:36.046Z,12.62
2023-03-05T00:23:02.812Z,12.59
2023-03-05T00:25:29.629Z,12.58
2023-03-05T00:27:56.276Z,12.58
2023-03-05T00:30:22.976Z,12.56
2023-03-05T00:32:49.724Z,12.52
2023-03-05T00:35:16.582Z,12.52
2023-03-05T00:37:43.264Z,12.51
2023-03-05T00:40:10.786Z,12.51
2023-03-05T00:42:38.754Z,12.50
2023-03-05T00:45:07.392Z,12.48
2023-03-05T00:47:34.758Z,12.49
2023-03-05T00:50:02.088Z,12.50
2023-03-05T00:52:29.235Z,12.44
2023-03-05T00:54:56.044Z,12.41
2023-03-05T00:57:22.891Z,12.42
2023-03-05T00:59:49.759Z,12.42
2023-03-05T01:02:16.426Z,12.37
2023-03-05T01:04:45.970Z,12.34
2023-03-05T01:07:13.517Z,12.35
2023-03-05T01:09:40.347Z,12.36
2023-03-05T01:12:07.503Z,12.29
2023-03-05T01:14:35.795Z,12.26
2023-03-05T01:17:03.260Z,12.25
2023-03-05T01:19:30.141Z,12.23
2023-03-05T01:21:56.942Z,12.20
2023-03-05T01:24:23.818Z,12.20
2023-03-05T01:26:50.725Z,12.17
2023-03-05T01:29:17.536Z,12.17
2023-03-05T01:31:44.616Z,12.17
2023-03-05T01:34:11.525Z,12.14
2023-03-05T01:36:38.505Z,12.10
2023-03-05T01:39:05.349Z,12.08
2023-03-05T01:41:33.842Z,12.10
2023-03-05T01:44:01.087Z,12.08
2023-03-05T01:46:32.312Z,12.06
2023-03-05T01:49:04.391Z,12.07
2023-03-05T01:51:40.740Z,12.04
2023-03-05T01:54:10.721Z,12.04
2023-03-05T01:56:39.648Z,12.02
2023-03-05T01:59:06.384Z,12.00
2023-03-05T02:01:41.091Z,11.99
2023-03-05T02:04:11.470Z,11.98
2023-03-05T02:06:40.308Z,11.96
2023-03-05T02:09:07.319Z,11.95
2023-03-05T02:11:35.084Z,11.94
2023-03-05T02:14:03.318Z,11.93
2023-03-05T02:16:36.020Z,11.93
2023-03-05T02:19:05.844Z,11.92
2023-03-05T02:21:39.870Z,11.90
2023-03-05T02:24:06.989Z,11.87
2023-03-05T02:26:33.850Z,11.88
2023-03-05T02:29:03.074Z,11.87
2023-03-05T02:31:31.148Z,11.86
2023-03-05T02:33:58.299Z,11.84
2023-03-05T02:36:26.175Z,11.83
2023-03-05T02:38:56.979Z,11.83
2023-03-05T02:41:24.765Z,11.81
2023-03-05T02:43:52.437Z,11.81
2023-03-05T02:46:22.392Z,11.80
2023-03-05T02:48:50.269Z,11.81
2023-03-05T02:51:17.571Z,11.79
2023-03-05T02:53:45.879Z,11.77
2023-03-05T02:56:13.034Z,11.78
2023-03-05T02:58:39.832Z,11.75
2023-03-05T03:01:06.582Z,11.75
2023-03-05T03:03:33.623Z,11.72
2023-03-05T03:06:00.381Z,11.71
2023-03-05T03:08:27.457Z,11.72
2023-03-05T03:10:56.426Z,11.70
2023-03-05T03:13:25.167Z,11.71
2023-03-05T03:16:01.825Z,11.68
2023-03-05T03:18:28.567Z,11.70
2023-03-05T03:20:55.240Z,11.69
2023-03-05T03:23:21.916Z,11.68
2023-03-05T03:25:48.670Z,11.67
2023-03-05T03:28:18.075Z,11.68
2023-03-05T03:30:44.966Z,11.66
2023-03-05T03:33:12.004Z,11.68
2023-03-05T03:35:39.109Z,11.68
2023-03-05T03:38:06.134Z,11.68
2023-03-05T03:40:32.956Z,11.64
2023-03-05T03:42:59.874Z,11.64
2023-03-05T03:45:26.574Z,11.63
2023-03-05T03:47:53.203Z,11.64
2023-03-05T03:50:21.626Z,11.64
2023-03-05T03:52:48.302Z,11.62
2023-03-05T03:55:15.033Z,11.61
2023-03-05T03:57:41.721Z,11.61
2023-03-05T04:00:10.985Z,11.62
2023-03-05T04:02:41.622Z,11.60
2023-03-05T04:05:08.864Z,11.61
2023-03-05T04:07:35.565Z,11.60
2023-03-05T04:10:02.498Z,11.58
2023-03-05T04:12:29.120Z,11.58
2023-03-05T04:14:55.976Z,11.56
2023-03-05T04:17:22.729Z,11.55
2023-03-05T04:19:49.448Z,11.56
2023-03-05T04:22:17.686Z,11.55
2023-03-05T04:24:44.738Z,11.55
2023-03-05T04:27:11.619Z,11.54
2023-03-05T04:29:38.785Z,11.52
2023-03-05T04:32:06.620Z,11.53
2023-03-05T04:34:33.674Z,11.52
2023-03-05T04:37:00.514Z,11.49
2023-03-05T04:39:27.572Z,11.47
2023-03-05T04:41:54.419Z,11.49
2023-03-05T04:44:23.273Z,11.49
2023-03-05T04:46:50.162Z,11.49
2023-03-05T04:49:16.903Z,11.47
2023-03-05T04:51:43.623Z,11.46
2023-03-05T04:54:10.436Z,11.45
2023-03-05T04:56:37.309Z,11.45
2023-03-05T04:59:04.276Z,11.41
2023-03-05T05:01:31.061Z,11.39
2023-03-05T05:03:57.650Z,11.40
2023-03-05T05:06:24.320Z,11.39
2023-03-05T05:08:50.955Z,11.37
2023-03-05T05:11:18.166Z,11.39
2023-03-05T05:13:44.816Z,11.39
2023-03-05T05:16:11.815Z,11.38
2023-03-05T05:18:38.452Z,11.35
2023-03-05T05:21:13.358Z,11.34
2023-03-05T05:23:40.406Z,11.34
2023-03-05T05:26:08.644Z,11.34
2023-03-05T05:28:35.942Z,11.32
2023-03-05T05:31:07.764Z,11.33
2023-03-05T05:33:34.656Z,11.33
2023-03-05T05:36:06.394Z,11.32
2023-03-05T05:38:33.793Z,11.30
2023-03-05T05:41:10.428Z,11.30
2023-03-05T05:43:37.388Z,11.30
2023-03-05T05:46:06.795Z,11.31
2023-03-05T05:48:34.447Z,11.26
2023-03-05T05:51:09.128Z,11.27
2023-03-05T05:53:36.507Z,11.26
2023-03-05T05:56:07.498Z,11.25
2023-03-05T05:58:34.517Z,11.26
2023-03-05T06:01:01.454Z,11.25
2023-03-05T06:03:28.454Z,11.26
2023-03-05T06:05:55.715Z,11.24
2023-03-05T06:08:22.409Z,11.22
2023-03-05T06:10:55.457Z,11.22
2023-03-05T06:13:22.291Z,11.24
2023-03-05T06:15:57.462Z,11.22
2023-03-05T06:18:24.460Z,11.21
2023-03-05T06:21:02.648Z,11.21
2023-03-05T06:23:29.402Z,11.19
2023-03-05T06:25:59.441Z,11.18
2023-03-05T06:28:27.676Z,11.17
2023-03-05T06:31:05.657Z,11.16
2023-03-05T06:33:35.017Z,11.14
2023-03-05T06:36:09.488Z,11.13
2023-03-05T06:38:36.973Z,11.12
2023-03-05T06:41:25.251Z,11.13
2023-03-05T06:43:52.192Z,11.14
2023-03-05T06:46:19.851Z,11.12
2023-03-05T06:48:47.729Z,11.10
2023-03-05T06:51:23.187Z,11.10
2023-03-05T06:53:50.448Z,11.11
2023-03-05T06:56:18.993Z,11.09
2023-03-05T06:58:47.661Z,11.10
2023-03-05T07:01:15.496Z,11.07
2023-03-05T07:03:42.872Z,11.05
2023-03-05T07:06:12.592Z,11.05
2023-03-05T07:08:39.556Z,11.06
2023-03-05T07:11:20.619Z,11.04
2023-03-05T07:13:48.320Z,11.04
2023-03-05T07:16:20.841Z,11.27
2023-03-05T07:18:48.507Z,11.14
2023-03-05T07:21:21.004Z,11.08
2023-03-05T07:23:48.773Z,11.01
2023-03-05T07:26:15.952Z,11.01
2023-03-05T07:28:43.461Z,11.00
2023-03-05T07:31:19.780Z,10.99
2023-03-05T07:33:48.730Z,10.99
2023-03-05T07:36:17.200Z,10.97
2023-03-05T07:38:43.952Z,10.97
2023-03-05T07:41:19.884Z,10.97
2023-03-05T07:43:48.384Z,10.95
2023-03-05T07:46:20.294Z,10.93
2023-03-05T07:48:47.590Z,10.93
2023-03-05T07:51:19.737Z,10.93
2023-03-05T07:53:48.189Z,10.95
2023-03-05T07:56:20.572Z,10.93
2023-03-05T07:58:47.292Z,10.92
2023-03-05T08:01:15.191Z,10.88
2023-03-05T08:03:45.795Z,10.90
2023-03-05T08:06:12.935Z,10.90
2023-03-05T08:08:39.812Z,10.89
2023-03-05T08:11:11.731Z,10.86
2023-03-05T08:13:39.469Z,10.86
2023-03-05T08:16:14.702Z,10.88
2023-03-05T08:18:42.021Z,10.86
2023-03-05T08:21:19.386Z,10.85
2023-03-05T08:23:46.214Z,10.86
2023-03-05T08:26:19.180Z,10.86
2023-03-05T08:28:46.225Z,10.87
2023-03-05T08:31:14.551Z,10.85
2023-03-05T08:33:41.535Z,10.83
2023-03-05T08:36:09.535Z,10.85
2023-03-05T08:38:36.555Z,10.82
2023-03-05T08:41:04.147Z,10.83
2023-03-05T08:43:31.363Z,10.82
2023-03-05T08:46:00.209Z,10.79
2023-03-05T08:48:28.255Z,10.80
2023-03-05T08:50:56.357Z,10.80
2023-03-05T08:53:23.242Z,10.80
2023-03-05T08:55:57.083Z,10.80
2023-03-05T08:58:24.415Z,10.80
2023-03-05T09:00:51.302Z,10.80
2023-03-05T09:03:18.827Z,10.79
2023-03-05T09:05:45.857Z,10.80
2023-03-05T09:08:12.619Z,10.75
2023-03-05T09:10:42.098Z,10.76
2023-03-05T09:13:09.664Z,10.76
2023-03-05T09:15:37.069Z,10.76
2023-03-05T09:18:04.095Z,10.75
2023-03-05T09:20:30.964Z,10.75
2023-03-05T09:22:57.692Z,10.75
2023-03-05T09:25:24.453Z,10.73
2023-03-05T09:27:51.138Z,10.74
2023-03-05T09:30:18.051Z,10.74
2023-03-05T09:32:44.862Z,10.73
2023-03-05T09:35:11.977Z,10.74
2023-03-05T09:37:38.959Z,10.80
2023-03-05T09:40:06.216Z,10.81
2023-03-05T09:42:38.564Z,10.79
2023-03-05T09:45:30.077Z,10.77
2023-03-05T09:47:59.442Z,10.75
2023-03-05T09:51:01.350Z,10.75
2023-03-05T09:53:38.879Z,10.75
2023-03-05T09:56:12.747Z,10.75
2023-03-05T09:58:39.654Z,10.73
2023-03-05T10:01:10.493Z,10.73
2023-03-05T10:03:50.109Z,10.72
2023-03-05T10:06:55.745Z,10.71
2023-03-05T10:09:54.365Z,10.71
2023-03-05T10:12:43.880Z,10.70
2023-03-05T10:15:16.521Z,10.71
2023-03-05T10:18:07.520Z,10.71
2023-03-05T10:20:42.005Z,10.69
2023-03-05T10:23:08.748Z,10.70
2023-03-05T10:25:54.799Z,10.70
2023-03-05T10:28:55.252Z,10.74
2023-03-05T10:31:35.231Z,10.75
2023-03-05T10:34:27.991Z,10.88
2023-03-05T10:37:21.057Z,10.93
2023-03-05T10:40:00.660Z,11.09
2023-03-05T10:42:49.509Z,11.33
2023-03-05T10:45:24.538Z,11.44
2023-03-05T10:48:12.711Z,11.58
2023-03-05T10:50:46.360Z,11.65
2023-03-05T10:53:31.635Z,11.79
2023-03-05T10:56:01.793Z,11.85
2023-03-05T10:58:28.683Z,11.96
2023-03-05T11:01:10.149Z,12.02
2023-03-05T11:03:53.535Z,12.12
2023-03-05T11:06:34.230Z,12.21
2023-03-05T11:09:32.618Z,12.29
2023-03-05T11:12:14.306Z,12.37
2023-03-05T11:14:45.645Z,12.48
2023-03-05T11:17:30.718Z,12.58
2023-03-05T11:20:18.308Z,12.61
2023-03-05T11:23:02.037Z,12.69
2023-03-05T11:25:28.847Z,12.75
2023-03-05T11:27:57.173Z,12.74
2023-03-05T11:30:32.729Z,12.76
2023-03-05T11:33:22.596Z,12.93
2023-03-05T11:35:51.380Z,12.88
2023-03-05T11:38:26.038Z,12.93
2023-03-05T11:40:55.495Z,12.96
2023-03-05T11:43:23.757Z,13.03
2023-03-05T11:46:03.115Z,13.07
2023-03-05T11:48:36.066Z,13.08
2023-03-05T11:51:20.682Z,13.08
2023-03-05T11:53:51.612Z,13.08
2023-03-05T11:56:26.915Z,13.09
2023-03-05T11:59:12.433Z,13.09
2023-03-05T12:01:59.876Z,13.18
2023-03-05T12:04:28.025Z,13.18
2023-03-05T12:07:00.543Z,13.20
2023-03-05T12:09:27.213Z,13.24
2023-03-05T12:12:09.667Z,13.24
2023-03-05T12:14:49.061Z,13.19
2023-03-05T12:17:31.607Z,13.24
2023-03-05T12:20:13.421Z,13.24
2023-03-05T12:22:42.483Z,13.25
2023-03-05T12:25:27.426Z,13.25
2023-03-05T12:27:54.279Z,13.27
2023-03-05T12:30:35.949Z,13.32
2023-03-05T12:33:04.099Z,13.31
2023-03-05T12:35:41.181Z,13.31
2023-03-05T12:38:39.246Z,13.35
2023-03-05T12:41:25.817Z,13.39
2023-03-05T12:44:06.337Z,13.38
2023-03-05T12:46:38.903Z,13.41
2023-03-05T12:49:27.038Z,13.45
2023-03-05T12:51:56.248Z,13.65
2023-03-05T12:54:39.680Z,13.71
2023-03-05T12:57:16.625Z,13.85
2023-03-05T12:59:51.348Z,13.85
2023-03-05T13:02:40.820Z,14.02
2023-03-05T13:05:33.239Z,13.84
2023-03-05T13:08:18.471Z,13.81
2023-03-05T13:10:52.738Z,13.77
2023-03-05T13:13:21.491Z,13.76
2023-03-05T13:15:50.678Z,13.76
2023-03-05T13:18:23.351Z,13.72
2023-03-05T13:21:04.703Z,13.76
2023-03-05T13:23:32.535Z,13.80
2023-03-05T13:26:03.831Z,13.87
2023-03-05T13:28:32.248Z,13.84
2023-03-05T13:31:02.633Z,13.88
2023-03-05T13:33:35.189Z,13.87
2023-03-05T13:36:02.894Z,13.86
2023-03-05T13:38:57.153Z,13.89
2023-03-05T13:41:26.150Z,13.89
2023-03-05T13:43:57.627Z,13.92
2023-03-05T13:46:24.270Z,13.92
2023-03-05T13:48:51.109Z,13.96
2023-03-05T13:51:17.849Z,13.96
2023-03-05T13:53:44.956Z,13.95
2023-03-05T13:56:17.766Z,14.01
2023-03-05T13:58:55.914Z,13.97
2023-03-05T14:01:44.072Z,13.98
2023-03-05T14:04:13.608Z,14.05
2023-03-05T14:06:54.921Z,14.18
2023-03-05T14:09:33.104Z,14.23
2023-03-05T14:12:07.325Z,14.29
2023-03-05T14:14:37.591Z,14.32
2023-03-05T14:17:39.971Z,14.19
2023-03-05T14:20:06.593Z,14.13
2023-03-05T14:22:36.468Z,14.13
2023-03-05T14:25:25.613Z,14.11
2023-03-05T14:27:52.664Z,14.05
2023-03-05T14:30:22.148Z,14.04
2023-03-05T14:32:50.140Z,14.00
2023-03-05T14:35:19.792Z,13.98
2023-03-05T14:37:49.682Z,14.03
2023-03-05T14:40:23.677Z,14.02
2023-03-05T14:42:57.467Z,13.96
2023-03-05T14:45:36.182Z,13.99
2023-03-05T14:48:04.885Z,14.02
2023-03-05T14:50:38.125Z,14.03
2023-03-05T14:53:10.745Z,14.06
2023-03-05T14:55:38.539Z,14.09
2023-03-05T14:58:13.254Z,14.10
2023-03-05T15:00:40.410Z,14.10
2023-03-05T15:03:07.608Z,14.09
2023-03-05T15:05:34.453Z,14.06
2023-03-05T15:08:01.254Z,14.06
2023-03-05T15:10:28.016Z,14.06
2023-03-05T15:12:54.587Z,14.08
2023-03-05T15:15:22.980Z,14.12
2023-03-05T15:17:57.491Z,14.19
2023-03-05T15:20:29.032Z,14.18
2023-03-05T15:22:56.213Z,14.18
2023-03-05T15:25:25.592Z,14.17
2023-03-05T15:27:52.680Z,14.09
2023-03-05T15:30:25.217Z,14.11
2023-03-05T15:32:54.305Z,14.14
2023-03-05T15:35:22.086Z,14.12
2023-03-05T15:37:48.920Z,14.13
2023-03-05T15:40:16.315Z,14.17
2023-03-05T15:42:43.079Z,14.21
2023-03-05T15:45:10.125Z,14.18
2023-03-05T15:47:36.876Z,14.22
2023-03-05T15:50:03.797Z,14.22
2023-03-05T15:52:30.571Z,14.23
2023-03-05T15:54:57.227Z,14.22
2023-03-05T15:57:24.022Z,14.20
2023-03-05T15:59:50.705Z,14.22
2023-03-05T16:02:17.455Z,14.21
2023-03-05T16:04:44.334Z,14.28
2023-03-05T16:07:11.614Z,14.23
2023-03-05T16:09:46.392Z,14.20
2023-03-05T16:12:18.474Z,14.21
2023-03-05T16:14:46.063Z,14.22
2023-03-05T16:17:13.813Z,14.27
2023-03-05T16:19:44.419Z,14.23
2023-03-05T16:22:11.241Z,14.27
2023-03-05T16:24:38.290Z,14.28
2023-03-05T16:27:05.219Z,14.28
2023-03-05T16:29:32.978Z,14.26
2023-03-05T16:32:02.655Z,14.27
2023-03-05T16:34:29.417Z,14.34
2023-03-05T16:36:56.135Z,14.38
2023-03-05T16:39:23.151Z,14.37
2023-03-05T16:41:50.482Z,14.39
2023-03-05T16:44:17.299Z,14.42
2023-03-05T16:46:49.219Z,14.39
2023-03-05T16:49:16.805Z,14.34
2023-03-05T16:51:43.425Z,14.37
2023-03-05T16:54:10.348Z,14.33
2023-03-05T16:56:37.380Z,14.38
2023-03-05T16:59:04.606Z,14.33
2023-03-05T17:01:31.816Z,14.40
2023-03-05T17:04:00.093Z,14.35
2023-03-05T17:06:29.298Z,14.37
2023-03-05T17:08:56.714Z,14.36
2023-03-05T17:11:25.698Z,14.30
2023-03-05T17:13:52.681Z,14.33
2023-03-05T17:16:20.414Z,14.35
2023-03-05T17:18:47.952Z,14.34
2023-03-05T17:21:15.561Z,14.29
2023-03-05T17:23:42.824Z,14.36
2023-03-05T17:26:13.008Z,14.35
2023-03-05T17:28:40.100Z,14.36
2023-03-05T17:31:06.793Z,14.36
2023-03-05T17:33:35.241Z,14.38
2023-03-05T17:36:02.570Z,14.34
2023-03-05T17:38:29.716Z,14.33
2023-03-05T17:40:56.683Z,14.34
2023-03-05T17:43:23.786Z,14.37
2023-03-05T17:45:50.689Z,14.33
2023-03-05T17:48:17.631Z,14.33
2023-03-05T17:50:45.153Z,14.34
2023-03-05T17:53:12.494Z,14.33
2023-03-05T17:55:40.023Z,14.35
2023-03-05T17:58:06.682Z,14.36
2023-03-05T18:00:33.754Z,14.42
2023-03-05T18:03:00.590Z,14.44
2023-03-05T18:05:28.559Z,14.43
2023-03-05T18:07:55.948Z,14.46
2023-03-05T18:10:24.958Z,14.42
2023-03-05T18:12:52.150Z,14.40
2023-03-05T18:15:20.307Z,14.38
2023-03-05T18:17:47.193Z,14.39
2023-03-05T18:20:30.028Z,14.45
2023-03-05T18:22:58.546Z,14.41
2023-03-05T18:25:31.068Z,14.37
2023-03-05T18:28:02.678Z,14.41
2023-03-05T18:30:29.951Z,14.41
2023-03-05T18:32:56.673Z,14.36
2023-03-05T18:35:24.442Z,14.36
2023-03-05T18:37:51.553Z,14.32
2023-03-05T18:40:21.958Z,14.36
2023-03-05T18:42:49.769Z,14.35
2023-03-05T18:45:18.602Z,14.34
2023-03-05T18:47:46.872Z,14.33
2023-03-05T18:50:18.475Z,14.33
2023-03-05T18:52:45.770Z,14.31
2023-03-05T18:55:17.542Z,14.34
2023-03-05T18:57:44.322Z,14.36
2023-03-05T19:00:15.988Z,14.35
2023-03-05T19:02:42.814Z,14.34
2023-03-05T19:05:10.213Z,14.35
2023-03-05T19:07:38.067Z,14.34
2023-03-05T19:10:07.555Z,14.35
2023-03-05T19:12:35.290Z,14.34
2023-03-05T19:15:22.558Z,14.37
2023-03-05T19:17:49.687Z,14.38
2023-03-05T19:20:17.463Z,14.33
2023-03-05T19:22:58.628Z,14.34
2023-03-05T19:25:25.584Z,14.32
2023-03-05T19:27:52.686Z,14.37
2023-03-05T19:30:19.844Z,14.44
2023-03-05T19:32:47.243Z,14.40
2023-03-05T19:35:16.375Z,14.36
2023-03-05T19:37:45.879Z,14.36
2023-03-05T19:40:14.321Z,14.29
2023-03-05T19:42:41.063Z,14.33
2023-03-05T19:45:08.725Z,14.32
2023-03-05T19:47:35.781Z,14.34
2023-03-05T19:50:02.848Z,14.29
2023-03-05T19:52:30.212Z,14.27
2023-03-05T19:54:57.046Z,14.26
2023-03-05T19:57:23.936Z,14.33
2023-03-05T19:59:53.979Z,14.32
2023-03-05T20:02:21.902Z,14.34
2023-03-05T20:04:49.473Z,14.32
2023-03-05T20:07:16.347Z,14.31
2023-03-05T20:09:43.077Z,14.25
2023-03-05T20:12:10.394Z,14.32
2023-03-05T20:14:37.474Z,14.25
2023-03-05T20:17:04.303Z,14.36
2023-03-05T20:19:30.941Z,14.32
2023-03-05T20:21:57.640Z,14.32
2023-03-05T20:24:24.493Z,14.27
2023-03-05T20:26:51.387Z,14.35
2023-03-05T20:29:18.867Z,14.32
2023-03-05T20:31:47.026Z,14.36
2023-03-05T20:34:16.965Z,14.33
2023-03-05T20:36:44.100Z,14.27
2023-03-05T20:39:10.932Z,14.27
2023-03-05T20:41:39.597Z,14.29
2023-03-05T20:44:07.702Z,14.34
2023-03-05T20:46:39.425Z,14.33
2023-03-05T20:49:26.598Z,14.33
2023-03-05T20:51:53.743Z,14.28
2023-03-05T20:54:20.702Z,14.33
2023-03-05T20:56:47.897Z,14.32
2023-03-05T20:59:14.726Z,14.30
2023-03-05T21:01:41.719Z,14.37
2023-03-05T21:04:08.933Z,14.34
2023-03-05T21:06:36.980Z,14.36
2023-03-05T21:09:04.063Z,14.37
2023-03-05T21:11:31.915Z,14.33
2023-03-05T21:13:59.315Z,14.35
2023-03-05T21:16:27.238Z,14.29
2023-03-05T21:18:56.027Z,14.34
2023-03-05T21:21:23.496Z,14.31
2023-03-05T21:23:50.343Z,14.37
2023-03-05T21:26:17.239Z,14.26
2023-03-05T21:28:44.025Z,14.31
2023-03-05T21:31:16.989Z,14.32
2023-03-05T21:33:44.323Z,14.31
2023-03-05T21:36:11.086Z,14.32
2023-03-05T21:38:37.886Z,14.32
2023-03-05T21:41:05.405Z,14.35
2023-03-05T21:43:33.322Z,14.27
2023-03-05T21:46:02.100Z,14.27
2023-03-05T21:48:29.451Z,14.26
2023-03-05T21:50:57.223Z,14.35
2023-03-05T21:53:24.200Z,14.31
2023-03-05T21:56:31.040Z,14.37
2023-03-05T21:58:57.936Z,14.29
2023-03-05T22:01:24.957Z,14.34
2023-03-05T22:03:52.150Z,14.34
2023-03-05T22:06:19.827Z,14.35
2023-03-05T22:08:47.316Z,14.44
2023-03-05T22:11:17.393Z,14.39
2023-03-05T22:13:44.143Z,14.39
2023-03-05T22:16:11.049Z,14.38
2023-03-05T22:18:38.004Z,14.38
2023-03-05T22:21:05.727Z,14.40
2023-03-05T22:23:34.597Z,14.40
2023-03-05T22:26:04.428Z,14.38
2023-03-05T22:28:32.580Z,14.38
2023-03-05T22:30:59.437Z,14.41
2023-03-05T22:33:27.485Z,14.41
2023-03-05T22:35:54.328Z,14.40
2023-03-05T22:38:21.977Z,14.39
2023-03-05T22:40:50.224Z,14.44
2023-03-05T22:43:18.318Z,14.41
2023-03-05T22:45:45.387Z,14.46
2023-03-05T22:48:12.734Z,14.47
2023-03-05T22:50:41.132Z,14.39
2023-03-05T22:53:08.351Z,14.38
2023-03-05T22:55:39.376Z,14.46
2023-03-05T22:58:06.042Z,14.41
2023-03-05T23:00:32.867Z,14.37
2023-03-05T23:02:59.790Z,14.38
2023-03-05T23:05:26.714Z,14.38
2023-03-05T23:07:53.529Z,14.32
2023-03-05T23:10:25.627Z,14.20
2023-03-05T23:12:54.793Z,14.13
2023-03-05T23:15:39.548Z,14.08
2023-03-05T23:18:09.320Z,13.96
2023-03-05T23:20:37.358Z,14.00
2023-03-05T23:23:04.527Z,13.95
2023-03-05T23:25:33.039Z,13.91
2023-03-05T23:28:00.794Z,13.80
2023-03-05T23:30:37.138Z,13.72
2023-03-05T23:33:05.927Z,13.64
2023-03-05T23:35:36.106Z,13.63
2023-03-05T23:38:06.727Z,13.56
2023-03-05T23:40:36.544Z,13.53
2023-03-05T23:43:04.008Z,13.50
2023-03-05T23:45:31.396Z,13.44
2023-03-05T23:47:58.588Z,13.40
2023-03-05T23:50:31.859Z,13.37
2023-03-05T23:53:01.869Z,13.34
2023-03-05T23:55:42.857Z,13.29
2023-03-05T23:58:10.764Z,13.27
